默认 日期 大小 文件数 浏览量 最新下载 xml
11-25磁力链接相关资源由用户搜索指令自动获取,结果来源于网络,本站不存储任何资料,亦不承担任何责任,请于24小时内删除,搜索到25077个磁力,显示前4000条数据,用时43ms。
    {"RARBG.com.txt": 34, "prvs.16.11.25.ok.naomi.were.going.in.mp4": 929187199, "prvs.16.11.25.ok.naomi.were.going.in.nfo": 5204}
创建时间: 2018-11-04 23:11:08 大小:886.15 MB 文件数量:3 热度:30 最近下载:2025-08-06 08:53:01
    ... .VOB": 176166912}, "Nirvana_1991-11-25_late_PRO3b_DVD.md5": 627, "Nirvana_1991-11-25_late_PRO3b_DVD.txt": 1358}
创建时间: 2018-11-04 23:22:42 大小:4.16 GB 文件数量:13 热度:15 最近下载:2025-08-08 00:40:04
    ... to sacred death.mp3": 10936681, "11 Violence, power, enforcement.mp3": 9713769 ...
创建时间: 2018-11-04 23:31:02 大小:291.37 MB 文件数量:67 热度:12 最近下载:2025-08-02 12:49:05
    {"RARBG.com.txt": 34, "pml.16.11.25.ms.juicy.and.skyy.black.double.the.bubble-anal.orgy.mp4": 1578039928, "pml.16.11.25.ms.juicy.and.skyy.black.double.the.bubble-anal.orgy.nfo": 5230}
创建时间: 2018-11-04 23:35:00 大小:1.47 GB 文件数量:3 热度:77 最近下载:2025-08-03 01:39:07
    ... - Complete Last Waltz_Disc 01 Track 11.flac": 20875345, "THE BAND - Complete ... - Complete Last Waltz_Disc 02 Track 11.flac": 17969278}, "Disc 03": {"noname ... - Complete Last Waltz_Disc 03 Track 11.flac": 23594593, "THE BAND - Complete ...
创建时间: 2018-11-04 23:43:42 大小:998.52 MB 文件数量:53 热度:19 最近下载:2025-08-01 01:25:06
    {"Sample": {"momishorny.17.11.25.ava.koxxx-sample.mp4": 79238750}, "momishorny.17.11.25.ava.koxxx.mp4": 2581303579, "momishorny.17.11.25.ava.koxxx.nfo": 5180}
创建时间: 2018-11-04 23:43:57 大小:2.48 GB 文件数量:3 热度:98 最近下载:2025-10-07 08:25:02
    ... 00-charlotte_de_witte_-_in_the_mix_(studio_brussel)-cable-11-25-2017-talion.m3u": 80 ... 00-charlotte_de_witte_-_in_the_mix_(studio_brussel)-cable-11-25-2017-talion.nfo": 17671, ... 00-charlotte_de_witte_-_in_the_mix_(studio_brussel)-cable-11-25-2017-talion.sfv": 90 ...
创建时间: 2018-11-05 00:11:08 大小:97.75 MB 文件数量:5 热度:13 最近下载:2025-08-05 06:58:02
    {"RARBG.com.txt": 34, "spytug.16.11.25.girl.46.mp4": 632266930, "spytug.16.11.25.girl.46.nfo": 5174}
创建时间: 2018-11-05 00:17:59 大小:602.98 MB 文件数量:3 热度:16 最近下载:2025-08-02 11:09:09
    {"yp-ms131125sc6v.nfo": 8578, "yp-ms131125sc6v.r00": 15000000, "yp-ms131125sc6v.r01": 15000000, "yp-ms131125sc6v.r02": 15000000, "yp-ms131125sc6v.r03": 15000000, "yp-ms131125sc6v.r04": 15000000, "yp-ms131125sc6v.r05": 15000000, "yp-ms131125sc6v.r06": ...
创建时间: 2018-11-05 01:53:39 大小:165.97 MB 文件数量:14 热度:13 最近下载:2025-08-01 21:27:09
    {"poster.jpg": 42627, "screens.jpg": 551665, "RARBG.com.txt": 33, "amateurcfnm.14.11.25.jenny.laine.shower.time.voyeur.readnfo.mp4": 747488303}
创建时间: 2018-11-05 02:26:43 大小:713.43 MB 文件数量:4 热度:31 最近下载:2025-08-25 12:20:01
    {"RARBG.txt": 30, "LesbianX.17.11.25.Cadence.Lux.And.Giselle.Palmer.Lesbian.Anal.Strapon.XXX.SD.MP4-KLEENEX.mp4": 339673101}
创建时间: 2018-11-05 05:06:27 大小:323.94 MB 文件数量:2 热度:38 最近下载:2025-08-08 23:39:02
    {"Sample": {"iak-younglibertines-121125-sample.mp4": 29233876}, "RARBG.com.txt": 34, "iak-younglibertines-121125.mp4": 443595338, "iak-younglibertines-121125.nfo": 5671}
创建时间: 2018-11-05 07:37:22 大小:450.93 MB 文件数量:4 热度:18 最近下载:2025-08-03 18:17:08
    {"NLA 2017-11-25 Highlights Round 25.mp4": 176436887}
创建时间: 2018-11-05 08:27:47 大小:168.26 MB 文件数量:1 热度:15 最近下载:2025-08-03 19:11:05
    {"Torrent-Downloaded-from-ExtraTorrent.cc.txt": 175, "sart.15.11.25.michaela.isizzu.time.for.me[N1C].mp4": 982924721}
创建时间: 2018-11-05 09:51:49 大小:937.39 MB 文件数量:2 热度:31 最近下载:2025-08-06 12:08:06
    {"RARBG.com.txt": 34, "gush.ea141125s.mp4": 2100616202, "gush.ea141125s1080p.nfo": 8993}
创建时间: 2018-11-05 10:15:26 大小:1.96 GB 文件数量:3 热度:26 最近下载:2025-08-24 23:15:01
    {"www.FENOPY.se.jpg": 69524, "WiseCleaner Wise Hotkey v1.11.25.exe": 6745628, "Torrent downloaded from 1337x.org.txt": 88}
创建时间: 2018-11-05 13:27:29 大小:6.5 MB 文件数量:3 热度:13 最近下载:2025-08-03 17:28:03
    {"RARBG.com.txt": 34, "privatecastingx.16.11.25.alexa.grace.mp4": 1636335456, "privatecastingx.16.11.25.alexa.grace.nfo": 5194}
创建时间: 2018-11-05 14:56:44 大小:1.52 GB 文件数量:3 热度:122 最近下载:2025-09-24 00:39:02
    {"Sample": {"mih.13.11.25.natasha.jizz.for.juju-sample.mp4": 85268519}, "RARBG.com.txt": 34, "mih.13.11.25.natasha.jizz.for.juju.mp4": 2985050319, "mih.13.11.25.natasha.jizz.for.juju.nfo": 6980}
创建时间: 2018-11-05 18:17:05 大小:2.86 GB 文件数量:4 热度:39 最近下载:2025-08-09 06:11:02
    {"RARBG.com.txt": 34, "bkb.16.11.25.jenna.j.foxx.mp4": 2466557778, "bkb.16.11.25.jenna.j.foxx.nfo": 5191}
创建时间: 2018-11-05 19:00:59 大小:2.3 GB 文件数量:3 热度:27 最近下载:2025-08-06 19:26:05
    {"Adelaide_new 2017-11-25.mp4": 131000324}
创建时间: 2018-11-05 22:06:53 大小:124.93 MB 文件数量:1 热度:13 最近下载:2025-08-03 15:48:02